CheckWX is a tool to help pilots better visualize weather data.  It is not intended as a substitute for an official pre-flight weather briefing.

08:56:12 UTC

LATI TAF
Tirana International Mother Teresa Airport
Tirana, Albania
TAF LATI 220500Z 2206/2306 VRB03KT CAVOK TEMPO 2209/2217 34012KT

Mar-22@
06:00 UTC

Mar-22 @ 06:00 UTC

Mar-23@
06:00 UTC

Mar-23 @ 06:00 UTC

TAF LATI 220500Z 2206/2306 VRB03KT CAVOK
Wind
  • Variable at 3 KTS
Conditions
No significant weather
Cloud Levels
  • No significant clouds

Mar-22@
09:00 UTC

Mar-22 @ 09:00 UTC

Mar-22@
17:00 UTC

Mar-22 @ 17:00 UTC

TEMPO 2209/2217 34012KT

Temporary

Temporary Changes expected for less than half the time period

Wind
  • 340° at 12 KTS